Dedham, IA

08:38 PM CDT del 22 Ottobre 2014 (GMT -0500)
Neu | Change Station
CLOSE
Current Station
Aeroporto
Location: Carroll,
Altitudine: 1204 ft
Stazioni meteo nelle vicinanze

Alt. 1204 ft 42.04 °N, 94.79 °W | Updated 23 minutes ago

Parzialmente nuvoloso
Parzialmente nuvoloso
59 °F
Sembra 59 °F
N
13
Vento Variabile Vento da SSE
Gusts 20 mph

Oggi
Massima -- | Minima -- °F
--% Possibilità di precip.
Ieri
Massima -- | Minima -- °F
Precip. -- in
7:39 AM 6:27 PM
Luna calante, 1% visible
Pressione 30.05 in
Visibilità 10.0 miglia
Nuvole Molto nuvoloso 5000 ft
Molto nuvoloso 6500 ft
Punto di rugiada 48 °F
Umidità 67%
Piovosità 0.00 in
Spessore del manto nevoso Non disponibile.
Raggi UV 0 fuori da 12
Polline 1.70 fuori da 12
Qualità dell'aria Non disponibile.
Flu Activity Sporadic
METAR KCIN 230115Z AUTO 15011G17KT 10SM BKN050 BKN065 15/09 A3005 RMK AO2

More Conditions Fewer Conditions

Pressione 30.05 in
Visibilità 10.0 miglia
Nuvole Molto nuvoloso 5000 ft
Molto nuvoloso 6500 ft
Punto di rugiada 48 °F
Umidità 67%
Piovosità 0.00 in
Spessore del manto nevoso Non disponibile.
Raggi UV 0 fuori da 12
Polline 1.70 fuori da 12
Qualità dell'aria Non disponibile.
Flu Activity Sporadic
METAR KCIN 230115Z AUTO 15011G17KT 10SM BKN050 BKN065 15/09 A3005 RMK AO2

More Conditions Fewer Conditions

10-Day Weather Forecast

Almanac

Astronomia

Oct. 22, 2014 Alba Tramonto
Ora attuale 07:39 CDT 18:27 CDT
Crepuscolo civile 07:11 CDT 18:55 CDT
Crepuscolo nautico 06:38 CDT 19:27 CDT
Crepuscolo astronomico 06:06 CDT 20:00 CDT
Luna 06:20 CDT (10/22) 17:55 CDT (10/22)
Estensione della luce visibile 11h 44m
Lunghezza del giorno
10h 47m
Tomorrow will be 2m 38s shorter.
Luna calante, 1% of the Moon is Illuminated
Oggi
Luna calante
Ott 23
Nuovo
Ott 30
Primo quarto
Nov 6
Luna piena
Nov 14
Ultimo quarto

Gli estremi di oggi

State Highs State Lows

Community

WunderPhotos

Upload Photos

1,764,106 foto caricate!

Nearby

Profondità neve

Stazione Profondità Altitudine
Non sono state evidenziate nuove nevicate

Attività sismica

Città  Distanza Mag. Data & Ora
Non sono state riportate attività sismiche nelle vicinanze.
Minimo Magnitudo Mostrato è 2.5.

Temperature delle acque costiere

Località Temperatura
Nessun dato dalle stazioni

Stazioni meteo nelle vicinanze